Accueil
METAR-TAF:

METAR-TAF

Aéroports :

West Plains Municipal Airport

West Plains, Missouri, États-Unis

latitude: 36-52-45N, longitude: 091-54-18W, altitude: 374 m

Observation

Le bulletin a été fait il y a 41 minutes, à 19:53 UTC
Vent 10 kt de sud/sud-est avec des rafales jusqu'à 17 kt
Température 31°C
Humidité 59%
Pression 1016 hPa
Visibilité: 16.1 km
Quelques nuages à une hauteur de 3700 ft

METAR: KUNO 141953Z AUTO 15010G17KT 10SM FEW037 31/22 A3000 RMK AO2 SLP145 T03110217

Heure: 15:34 (20:34 UTC)


TAF: absent

Observations et prévisions météorologiques de plus de 4000 aéroports (messages METAR et TAF).

Les stations disponibles sont représentées par des disques jaunes et rouges sur la carte.

Passer la souris dessus pour voir le nom de la station.

Cliquer dessus pour voir les observations et prévisions météorologiques.

Pour changer de carte: cliquez sur les boutons verts avec une croix noire pour zoomer, sur le bouton vert avec un tiret pour effectuer un zoom arrière, ou sur les flèches vertes pour les cartes adjacentes.


METAR-TAF: